sensor_id;sensor_type;location;lat;lon;timestamp;pressure;altitude;pressure_sealevel;temperature;humidity
13765;BME280;6953;48.810;9.204;2022-11-15T00:00:49;98555.31;;;11.65;100.00
13765;BME280;6953;48.810;9.204;2022-11-15T00:03:19;98539.94;;;11.59;100.00
13765;BME280;6953;48.810;9.204;2022-11-15T00:05:45;98550.06;;;11.65;100.00
13765;BME280;6953;48.810;9.204;2022-11-15T00:08:11;98548.66;;;11.60;100.00
13765;BME280;6953;48.810;9.204;2022-11-15T00:10:36;98476.88;;;11.01;100.00
13765;BME280;6953;48.810;9.204;2022-11-15T00:13:10;98532.22;;;11.56;100.00
13765;BME280;6953;48.810;9.204;2022-11-15T00:15:40;98582.53;;;11.64;100.00
13765;BME280;6953;48.810;9.204;2022-11-15T00:18:11;98556.72;;;11.57;99.99
13765;BME280;6953;48.810;9.204;2022-11-15T00:20:37;98548.19;;;11.38;100.00
13765;BME280;6953;48.810;9.204;2022-11-15T00:23:04;98561.97;;;11.41;100.00
13765;BME280;6953;48.810;9.204;2022-11-15T00:25:29;98353.25;;;10.17;100.00
13765;BME280;6953;48.810;9.204;2022-11-15T00:27:56;98548.63;;;11.31;100.00
13765;BME280;6953;48.810;9.204;2022-11-15T00:30:22;98294.84;;;10.15;99.67
13765;BME280;6953;48.810;9.204;2022-11-15T00:32:47;98532.88;;;11.60;99.34
13765;BME280;6953;48.810;9.204;2022-11-15T00:35:13;98488.13;;;11.32;99.54
13765;BME280;6953;48.810;9.204;2022-11-15T00:37:38;98295.59;;;10.17;99.75
13765;BME280;6953;48.810;9.204;2022-11-15T00:40:04;98525.44;;;11.52;100.00
13765;BME280;6953;48.810;9.204;2022-11-15T00:42:29;98567.31;;;11.55;100.00
13765;BME280;6953;48.810;9.204;2022-11-15T00:44:54;98540.31;;;11.52;100.00
13765;BME280;6953;48.810;9.204;2022-11-15T00:47:20;98503.03;;;11.32;100.00
13765;BME280;6953;48.810;9.204;2022-11-15T00:49:45;98481.31;;;11.14;100.00
13765;BME280;6953;48.810;9.204;2022-11-15T00:52:10;98528.09;;;11.37;100.00
13765;BME280;6953;48.810;9.204;2022-11-15T00:54:36;98514.66;;;11.28;100.00
13765;BME280;6953;48.810;9.204;2022-11-15T00:57:01;98514.34;;;11.18;100.00
13765;BME280;6953;48.810;9.204;2022-11-15T00:59:26;98518.84;;;11.16;100.00
13765;BME280;6953;48.810;9.204;2022-11-15T01:01:52;98541.31;;;11.06;100.00
13765;BME280;6953;48.810;9.204;2022-11-15T01:04:17;98534.22;;;11.08;100.00
13765;BME280;6953;48.810;9.204;2022-11-15T01:06:42;98500.09;;;10.93;100.00
13765;BME280;6953;48.810;9.204;2022-11-15T01:09:08;98516.03;;;10.74;100.00
13765;BME280;6953;48.810;9.204;2022-11-15T01:11:33;98515.84;;;10.93;100.00
13765;BME280;6953;48.810;9.204;2022-11-15T01:13:58;98334.28;;;9.81;100.00
13765;BME280;6953;48.810;9.204;2022-11-15T01:16:24;98264.25;;;9.38;100.00
13765;BME280;6953;48.810;9.204;2022-11-15T01:18:50;98518.59;;;10.76;100.00
13765;BME280;6953;48.810;9.204;2022-11-15T01:21:17;98256.28;;;9.09;100.00
13765;BME280;6953;48.810;9.204;2022-11-15T01:23:43;98182.13;;;8.47;100.00
13765;BME280;6953;48.810;9.204;2022-11-15T01:26:11;98509.97;;;10.28;100.00
13765;BME280;6953;48.810;9.204;2022-11-15T01:28:39;98449.81;;;9.77;100.00
13765;BME280;6953;48.810;9.204;2022-11-15T01:31:19;98427.69;;;9.50;100.00
13765;BME280;6953;48.810;9.204;2022-11-15T01:33:46;98243.19;;;8.29;100.00
13765;BME280;6953;48.810;9.204;2022-11-15T01:36:20;98394.47;;;9.03;100.00
13765;BME280;6953;48.810;9.204;2022-11-15T01:38:52;98244.53;;;8.02;100.00
13765;BME280;6953;48.810;9.204;2022-11-15T01:41:21;98438.53;;;9.10;100.00
13765;BME280;6953;48.810;9.204;2022-11-15T01:43:51;98519.06;;;9.39;100.00
13765;BME280;6953;48.810;9.204;2022-11-15T01:48:46;98217.91;;;7.60;100.00
13765;BME280;6953;48.810;9.204;2022-11-15T01:51:15;98304.22;;;8.10;100.00
13765;BME280;6953;48.810;9.204;2022-11-15T01:53:45;98233.72;;;7.57;100.00
13765;BME280;6953;48.810;9.204;2022-11-15T01:56:14;98304.16;;;7.94;100.00
13765;BME280;6953;48.810;9.204;2022-11-15T01:58:43;98490.09;;;9.08;100.00
13765;BME280;6953;48.810;9.204;2022-11-15T02:01:10;98270.50;;;7.70;100.00
13765;BME280;6953;48.810;9.204;2022-11-15T02:03:42;98517.13;;;8.92;100.00
13765;BME280;6953;48.810;9.204;2022-11-15T02:06:10;98239.63;;;7.44;100.00
13765;BME280;6953;48.810;9.204;2022-11-15T02:08:36;98495.66;;;9.02;100.00
13765;BME280;6953;48.810;9.204;2022-11-15T02:11:06;98273.63;;;7.95;100.00
13765;BME280;6953;48.810;9.204;2022-11-15T02:13:32;98269.56;;;8.06;100.00
13765;BME280;6953;48.810;9.204;2022-11-15T02:22:14;98406.84;;;9.16;100.00
13765;BME280;6953;48.810;9.204;2022-11-15T02:25:21;98470.91;;;9.41;100.00
13765;BME280;6953;48.810;9.204;2022-11-15T02:28:06;98167.47;;;7.77;100.00
13765;BME280;6953;48.810;9.204;2022-11-15T02:30:45;98466.75;;;9.54;100.00
13765;BME280;6953;48.810;9.204;2022-11-15T02:36:02;98370.34;;;9.13;100.00
13765;BME280;6953;48.810;9.204;2022-11-15T02:41:31;98227.00;;;8.38;100.00
13765;BME280;6953;48.810;9.204;2022-11-15T02:44:02;98454.44;;;9.72;100.00
13765;BME280;6953;48.810;9.204;2022-11-15T02:49:18;98428.88;;;9.44;100.00
13765;BME280;6953;48.810;9.204;2022-11-15T02:51:46;98460.25;;;9.61;100.00
13765;BME280;6953;48.810;9.204;2022-11-15T02:54:25;98171.69;;;7.96;100.00
13765;BME280;6953;48.810;9.204;2022-11-15T02:56:55;98399.66;;;9.36;100.00
13765;BME280;6953;48.810;9.204;2022-11-15T03:05:12;98437.84;;;9.88;100.00
13765;BME280;6953;48.810;9.204;2022-11-15T03:07:51;98173.13;;;8.35;100.00
13765;BME280;6953;48.810;9.204;2022-11-15T03:15:49;98164.31;;;8.04;100.00
13765;BME280;6953;48.810;9.204;2022-11-15T03:18:32;98429.56;;;9.48;100.00
13765;BME280;6953;48.810;9.204;2022-11-15T03:21:00;98427.53;;;9.37;100.00
13765;BME280;6953;48.810;9.204;2022-11-15T03:23:28;98420.91;;;9.30;100.00
13765;BME280;6953;48.810;9.204;2022-11-15T03:25:56;98154.66;;;7.72;100.00
13765;BME280;6953;48.810;9.204;2022-11-15T03:28:53;98420.03;;;9.30;100.00
13765;BME280;6953;48.810;9.204;2022-11-15T03:31:22;98212.88;;;8.08;100.00
13765;BME280;6953;48.810;9.204;2022-11-15T03:34:19;98360.59;;;9.00;100.00
13765;BME280;6953;48.810;9.204;2022-11-15T03:36:47;98444.38;;;9.32;100.00
13765;BME280;6953;48.810;9.204;2022-11-15T03:39:13;98396.13;;;9.21;100.00
13765;BME280;6953;48.810;9.204;2022-11-15T03:47:06;98408.94;;;9.42;100.00
13765;BME280;6953;48.810;9.204;2022-11-15T03:49:35;98390.69;;;9.40;100.00
13765;BME280;6953;48.810;9.204;2022-11-15T03:52:02;98241.06;;;8.52;100.00
13765;BME280;6953;48.810;9.204;2022-11-15T03:54:29;98374.72;;;9.29;100.00
13765;BME280;6953;48.810;9.204;2022-11-15T03:56:54;98348.44;;;9.16;100.00
13765;BME280;6953;48.810;9.204;2022-11-15T03:59:20;98307.06;;;8.90;100.00
13765;BME280;6953;48.810;9.204;2022-11-15T04:01:45;98389.19;;;9.36;100.00
13765;BME280;6953;48.810;9.204;2022-11-15T04:04:11;98356.44;;;9.28;100.00
13765;BME280;6953;48.810;9.204;2022-11-15T04:06:36;98376.25;;;9.49;100.00
13765;BME280;6953;48.810;9.204;2022-11-15T04:09:02;98129.59;;;8.02;100.00
13765;BME280;6953;48.810;9.204;2022-11-15T04:11:27;98400.97;;;9.76;100.00
13765;BME280;6953;48.810;9.204;2022-11-15T04:13:53;98128.81;;;8.17;100.00
13765;BME280;6953;48.810;9.204;2022-11-15T04:16:18;98413.09;;;9.78;100.00
13765;BME280;6953;48.810;9.204;2022-11-15T04:18:43;98190.63;;;8.50;100.00
13765;BME280;6953;48.810;9.204;2022-11-15T04:21:09;98423.03;;;9.72;100.00
13765;BME280;6953;48.810;9.204;2022-11-15T04:23:53;98311.38;;;9.23;100.00
13765;BME280;6953;48.810;9.204;2022-11-15T04:26:21;98401.91;;;9.75;100.00
13765;BME280;6953;48.810;9.204;2022-11-15T04:28:47;98382.56;;;9.77;100.00
13765;BME280;6953;48.810;9.204;2022-11-15T04:31:32;98430.25;;;9.84;100.00
13765;BME280;6953;48.810;9.204;2022-11-15T04:33:57;98130.34;;;8.21;100.00
13765;BME280;6953;48.810;9.204;2022-11-15T04:36:23;98388.50;;;9.96;100.00
13765;BME280;6953;48.810;9.204;2022-11-15T04:39:07;98391.81;;;10.00;100.00
13765;BME280;6953;48.810;9.204;2022-11-15T04:41:33;98105.44;;;8.31;100.00
13765;BME280;6953;48.810;9.204;2022-11-15T04:43:58;98258.63;;;9.30;100.00
13765;BME280;6953;48.810;9.204;2022-11-15T04:46:24;98124.75;;;8.44;100.00
13765;BME280;6953;48.810;9.204;2022-11-15T04:48:50;98367.44;;;9.82;100.00
13765;BME280;6953;48.810;9.204;2022-11-15T04:51:16;98284.69;;;9.17;100.00
13765;BME280;6953;48.810;9.204;2022-11-15T04:53:42;98403.97;;;9.53;100.00
13765;BME280;6953;48.810;9.204;2022-11-15T04:56:07;98352.97;;;9.12;100.00
13765;BME280;6953;48.810;9.204;2022-11-15T04:58:33;98361.78;;;9.27;100.00
13765;BME280;6953;48.810;9.204;2022-11-15T05:01:06;98053.94;;;7.51;100.00
13765;BME280;6953;48.810;9.204;2022-11-15T05:03:32;98133.00;;;7.87;100.00
13765;BME280;6953;48.810;9.204;2022-11-15T05:06:15;98361.16;;;9.22;100.00
13765;BME280;6953;48.810;9.204;2022-11-15T05:08:41;98279.94;;;8.75;100.00
13765;BME280;6953;48.810;9.204;2022-11-15T05:11:06;98357.47;;;9.26;100.00
13765;BME280;6953;48.810;9.204;2022-11-15T05:13:31;98125.53;;;7.97;100.00
13765;BME280;6953;48.810;9.204;2022-11-15T05:15:57;98346.44;;;9.36;100.00
13765;BME280;6953;48.810;9.204;2022-11-15T05:18:22;98293.19;;;9.05;100.00
13765;BME280;6953;48.810;9.204;2022-11-15T05:20:47;98345.66;;;9.34;100.00
13765;BME280;6953;48.810;9.204;2022-11-15T05:23:13;98349.31;;;9.31;100.00
13765;BME280;6953;48.810;9.204;2022-11-15T05:25:38;98348.94;;;9.22;100.00
13765;BME280;6953;48.810;9.204;2022-11-15T05:28:03;98074.13;;;7.48;100.00
13765;BME280;6953;48.810;9.204;2022-11-15T05:30:29;98345.81;;;8.99;100.00
13765;BME280;6953;48.810;9.204;2022-11-15T05:32:55;98066.63;;;7.42;100.00
13765;BME280;6953;48.810;9.204;2022-11-15T05:35:38;98380.16;;;9.10;100.00
13765;BME280;6953;48.810;9.204;2022-11-15T05:38:05;98354.91;;;9.09;100.00
13765;BME280;6953;48.810;9.204;2022-11-15T05:40:31;98336.28;;;9.15;100.00
13765;BME280;6953;48.810;9.204;2022-11-15T05:42:57;98244.50;;;8.70;100.00
13765;BME280;6953;48.810;9.204;2022-11-15T05:45:24;98341.44;;;9.31;100.00
13765;BME280;6953;48.810;9.204;2022-11-15T05:47:50;98258.47;;;8.86;100.00
13765;BME280;6953;48.810;9.204;2022-11-15T05:50:17;98279.84;;;9.09;100.00
13765;BME280;6953;48.810;9.204;2022-11-15T05:52:44;98331.28;;;9.26;100.00
13765;BME280;6953;48.810;9.204;2022-11-15T05:55:11;98150.63;;;8.33;100.00
13765;BME280;6953;48.810;9.204;2022-11-15T05:57:37;98338.09;;;9.45;100.00
13765;BME280;6953;48.810;9.204;2022-11-15T06:00:04;98343.91;;;9.50;100.00
13765;BME280;6953;48.810;9.204;2022-11-15T06:02:29;98359.56;;;9.51;100.00
13765;BME280;6953;48.810;9.204;2022-11-15T06:04:55;98339.53;;;9.50;100.00
13765;BME280;6953;48.810;9.204;2022-11-15T06:07:20;98016.25;;;7.57;100.00
13765;BME280;6953;48.810;9.204;2022-11-15T06:09:45;98348.31;;;9.49;100.00
13765;BME280;6953;48.810;9.204;2022-11-15T06:12:11;98340.31;;;9.52;100.00
13765;BME280;6953;48.810;9.204;2022-11-15T06:14:36;98250.50;;;9.04;100.00
13765;BME280;6953;48.810;9.204;2022-11-15T06:17:01;98340.38;;;9.66;100.00
13765;BME280;6953;48.810;9.204;2022-11-15T06:19:27;98339.13;;;9.73;100.00
13765;BME280;6953;48.810;9.204;2022-11-15T06:21:58;98080.72;;;8.21;100.00
13765;BME280;6953;48.810;9.204;2022-11-15T06:24:23;98185.91;;;8.74;100.00
13765;BME280;6953;48.810;9.204;2022-11-15T06:26:49;98170.44;;;8.69;100.00
13765;BME280;6953;48.810;9.204;2022-11-15T06:29:14;98315.81;;;9.53;100.00
13765;BME280;6953;48.810;9.204;2022-11-15T06:31:39;98150.44;;;8.53;100.00
13765;BME280;6953;48.810;9.204;2022-11-15T06:34:05;98338.94;;;9.61;100.00
13765;BME280;6953;48.810;9.204;2022-11-15T06:36:30;98337.25;;;9.60;100.00
13765;BME280;6953;48.810;9.204;2022-11-15T06:38:56;98377.72;;;9.70;100.00
13765;BME280;6953;48.810;9.204;2022-11-15T06:41:21;98373.94;;;9.60;100.00
13765;BME280;6953;48.810;9.204;2022-11-15T06:43:47;98189.28;;;8.91;100.00
13765;BME280;6953;48.810;9.204;2022-11-15T06:46:12;98344.59;;;9.84;100.00
13765;BME280;6953;48.810;9.204;2022-11-15T06:48:38;98347.94;;;9.88;100.00
13765;BME280;6953;48.810;9.204;2022-11-15T06:51:05;98280.13;;;9.51;100.00
13765;BME280;6953;48.810;9.204;2022-11-15T06:53:31;98346.13;;;9.88;100.00
13765;BME280;6953;48.810;9.204;2022-11-15T06:56:01;98341.16;;;9.84;100.00
13765;BME280;6953;48.810;9.204;2022-11-15T06:58:27;98353.91;;;9.90;100.00
13765;BME280;6953;48.810;9.204;2022-11-15T07:00:52;98359.06;;;9.91;100.00
13765;BME280;6953;48.810;9.204;2022-11-15T07:03:17;98352.75;;;9.95;100.00
13765;BME280;6953;48.810;9.204;2022-11-15T07:05:56;98344.13;;;9.93;100.00
13765;BME280;6953;48.810;9.204;2022-11-15T07:08:23;98250.16;;;9.41;100.00
13765;BME280;6953;48.810;9.204;2022-11-15T07:10:49;98309.47;;;9.88;100.00
13765;BME280;6953;48.810;9.204;2022-11-15T07:13:14;98341.09;;;10.16;100.00
13765;BME280;6953;48.810;9.204;2022-11-15T07:15:40;98098.16;;;8.84;100.00
13765;BME280;6953;48.810;9.204;2022-11-15T07:18:05;98273.78;;;10.01;100.00
13765;BME280;6953;48.810;9.204;2022-11-15T07:20:31;98356.22;;;10.56;100.00
13765;BME280;6953;48.810;9.204;2022-11-15T07:23:00;98093.66;;;9.17;100.00
13765;BME280;6953;48.810;9.204;2022-11-15T07:25:26;98382.63;;;10.82;100.00
13765;BME280;6953;48.810;9.204;2022-11-15T07:27:58;98108.38;;;9.62;100.00
13765;BME280;6953;48.810;9.204;2022-11-15T07:30:27;98301.19;;;11.12;100.00
13765;BME280;6953;48.810;9.204;2022-11-15T07:32:59;98344.72;;;11.71;100.00
13765;BME280;6953;48.810;9.204;2022-11-15T07:35:26;98339.75;;;12.07;100.00
13765;BME280;6953;48.810;9.204;2022-11-15T07:38:00;98374.22;;;12.43;100.00
13765;BME280;6953;48.810;9.204;2022-11-15T07:40:30;98114.25;;;11.33;100.00
13765;BME280;6953;48.810;9.204;2022-11-15T07:43:14;98169.16;;;12.03;98.78
13765;BME280;6953;48.810;9.204;2022-11-15T07:45:44;98109.00;;;11.98;96.92
13765;BME280;6953;48.810;9.204;2022-11-15T07:48:10;98346.56;;;13.63;94.71
13765;BME280;6953;48.810;9.204;2022-11-15T07:50:35;98327.00;;;13.78;92.08
13765;BME280;6953;48.810;9.204;2022-11-15T07:53:01;98340.41;;;14.11;89.64
13765;BME280;6953;48.810;9.204;2022-11-15T07:55:27;98294.72;;;14.11;87.95
13765;BME280;6953;48.810;9.204;2022-11-15T07:58:03;98238.66;;;13.96;87.02
13765;BME280;6953;48.810;9.204;2022-11-15T08:00:29;98334.75;;;14.75;85.90
13765;BME280;6953;48.810;9.204;2022-11-15T08:03:08;98331.34;;;14.96;84.62
13765;BME280;6953;48.810;9.204;2022-11-15T08:05:36;98230.28;;;14.60;83.38
13765;BME280;6953;48.810;9.204;2022-11-15T08:08:02;98328.63;;;15.20;82.18
13765;BME280;6953;48.810;9.204;2022-11-15T08:10:28;98331.28;;;15.31;82.06
13765;BME280;6953;48.810;9.204;2022-11-15T08:12:59;98228.06;;;14.77;81.31
13765;BME280;6953;48.810;9.204;2022-11-15T08:15:25;98333.38;;;15.38;80.90
13765;BME280;6953;48.810;9.204;2022-11-15T08:18:03;98229.00;;;15.20;79.89
13765;BME280;6953;48.810;9.204;2022-11-15T08:20:29;98061.41;;;14.58;77.59
13765;BME280;6953;48.810;9.204;2022-11-15T08:22:56;98312.72;;;16.18;76.71
13765;BME280;6953;48.810;9.204;2022-11-15T08:25:22;98241.16;;;15.66;75.85
13765;BME280;6953;48.810;9.204;2022-11-15T08:27:51;98298.94;;;15.93;75.98
13765;BME280;6953;48.810;9.204;2022-11-15T08:30:16;98244.78;;;15.65;75.39
13765;BME280;6953;48.810;9.204;2022-11-15T08:32:42;98221.84;;;15.55;74.74
13765;BME280;6953;48.810;9.204;2022-11-15T08:35:07;98302.31;;;15.95;75.06
13765;BME280;6953;48.810;9.204;2022-11-15T08:37:33;98074.78;;;14.46;75.39
13765;BME280;6953;48.810;9.204;2022-11-15T08:39:59;98016.88;;;13.99;75.61
13765;BME280;6953;48.810;9.204;2022-11-15T08:42:24;98295.53;;;15.49;75.73
13765;BME280;6953;48.810;9.204;2022-11-15T08:44:49;98320.00;;;15.51;76.17
13765;BME280;6953;48.810;9.204;2022-11-15T08:47:15;98322.78;;;15.49;76.33
13765;BME280;6953;48.810;9.204;2022-11-15T08:49:40;98083.25;;;14.39;76.20
13765;BME280;6953;48.810;9.204;2022-11-15T08:52:05;98288.03;;;15.75;75.96
13765;BME280;6953;48.810;9.204;2022-11-15T08:54:31;98283.19;;;15.91;75.92
13765;BME280;6953;48.810;9.204;2022-11-15T08:56:56;98273.25;;;16.26;75.15
13765;BME280;6953;48.810;9.204;2022-11-15T08:59:22;98236.59;;;16.42;73.28
13765;BME280;6953;48.810;9.204;2022-11-15T09:01:47;98261.81;;;17.87;68.18
13765;BME280;6953;48.810;9.204;2022-11-15T09:04:13;98262.13;;;20.51;58.10
13765;BME280;6953;48.810;9.204;2022-11-15T09:06:38;98248.75;;;22.53;50.48
13765;BME280;6953;48.810;9.204;2022-11-15T09:09:04;98253.31;;;24.17;44.60
13765;BME280;6953;48.810;9.204;2022-11-15T09:11:29;98272.94;;;25.51;41.54
13765;BME280;6953;48.810;9.204;2022-11-15T09:13:54;98311.84;;;26.92;35.48
13765;BME280;6953;48.810;9.204;2022-11-15T09:16:20;98108.44;;;26.27;34.64
13765;BME280;6953;48.810;9.204;2022-11-15T09:18:45;98304.06;;;26.61;34.55
13765;BME280;6953;48.810;9.204;2022-11-15T09:21:11;98290.25;;;25.86;37.27
13765;BME280;6953;48.810;9.204;2022-11-15T09:23:37;98272.44;;;26.35;36.54
13765;BME280;6953;48.810;9.204;2022-11-15T09:26:04;98270.91;;;27.03;34.80
13765;BME280;6953;48.810;9.204;2022-11-15T09:28:30;98283.75;;;27.01;34.47
13765;BME280;6953;48.810;9.204;2022-11-15T09:31:00;98220.91;;;26.52;34.43
13765;BME280;6953;48.810;9.204;2022-11-15T09:33:26;98265.16;;;26.29;35.83
13765;BME280;6953;48.810;9.204;2022-11-15T09:35:52;98228.56;;;25.99;34.94
13765;BME280;6953;48.810;9.204;2022-11-15T09:38:18;98174.88;;;25.91;33.61
13765;BME280;6953;48.810;9.204;2022-11-15T09:40:50;98230.78;;;26.87;32.08
13765;BME280;6953;48.810;9.204;2022-11-15T09:46:02;98295.75;;;30.05;27.66
13765;BME280;6953;48.810;9.204;2022-11-15T09:48:55;98142.50;;;29.34;26.03
13765;BME280;6953;48.810;9.204;2022-11-15T09:51:38;98130.25;;;28.35;27.46
13765;BME280;6953;48.810;9.204;2022-11-15T09:56:46;98283.41;;;31.09;25.38
13765;BME280;6953;48.810;9.204;2022-11-15T09:59:27;98281.59;;;31.77;24.58
13765;BME280;6953;48.810;9.204;2022-11-15T10:04:41;98274.41;;;31.64;24.15
13765;BME280;6953;48.810;9.204;2022-11-15T10:09:53;98270.44;;;29.41;26.45
13765;BME280;6953;48.810;9.204;2022-11-15T10:12:20;98273.63;;;27.51;30.50
13765;BME280;6953;48.810;9.204;2022-11-15T10:14:48;98236.13;;;26.10;34.20
13765;BME280;6953;48.810;9.204;2022-11-15T10:17:30;98221.84;;;25.23;36.03
13765;BME280;6953;48.810;9.204;2022-11-15T10:20:18;98222.00;;;24.39;37.88
13765;BME280;6953;48.810;9.204;2022-11-15T10:22:47;98216.94;;;23.37;40.60
13765;BME280;6953;48.810;9.204;2022-11-15T10:25:20;98065.56;;;21.77;43.26
13765;BME280;6953;48.810;9.204;2022-11-15T10:28:22;98205.31;;;21.86;45.35
13765;BME280;6953;48.810;9.204;2022-11-15T10:30:53;98197.47;;;21.09;47.26
13765;BME280;6953;48.810;9.204;2022-11-15T10:33:45;98188.31;;;20.52;48.69
13765;BME280;6953;48.810;9.204;2022-11-15T10:41:14;98189.00;;;19.57;51.87
13765;BME280;6953;48.810;9.204;2022-11-15T10:43:41;98162.34;;;19.03;53.31
13765;BME280;6953;48.810;9.204;2022-11-15T10:46:23;98029.31;;;18.04;54.14
13765;BME280;6953;48.810;9.204;2022-11-15T10:48:49;98162.00;;;18.80;54.90
13765;BME280;6953;48.810;9.204;2022-11-15T10:51:26;98132.81;;;18.61;55.41
13765;BME280;6953;48.810;9.204;2022-11-15T10:53:54;98175.25;;;18.98;55.91
13765;BME280;6953;48.810;9.204;2022-11-15T10:56:22;98053.59;;;18.37;55.82
13765;BME280;6953;48.810;9.204;2022-11-15T10:58:56;98170.13;;;19.24;55.92
13765;BME280;6953;48.810;9.204;2022-11-15T11:01:24;98140.13;;;18.95;56.38
13765;BME280;6953;48.810;9.204;2022-11-15T11:04:02;98167.47;;;19.24;56.88
13765;BME280;6953;48.810;9.204;2022-11-15T11:06:28;98166.81;;;19.03;57.81
13765;BME280;6953;48.810;9.204;2022-11-15T11:09:05;98156.41;;;18.83;58.47
13765;BME280;6953;48.810;9.204;2022-11-15T11:11:50;98135.19;;;18.64;58.77
13765;BME280;6953;48.810;9.204;2022-11-15T11:14:37;98171.84;;;18.51;59.44
13765;BME280;6953;48.810;9.204;2022-11-15T11:17:04;97942.66;;;16.91;60.23
13765;BME280;6953;48.810;9.204;2022-11-15T11:19:49;98173.25;;;18.17;60.76
13765;BME280;6953;48.810;9.204;2022-11-15T11:22:31;98164.31;;;18.08;61.19
13765;BME280;6953;48.810;9.204;2022-11-15T11:27:37;98184.16;;;18.14;61.31
13765;BME280;6953;48.810;9.204;2022-11-15T11:30:11;98161.69;;;18.27;61.30
13765;BME280;6953;48.810;9.204;2022-11-15T11:35:24;98132.59;;;18.81;60.27
13765;BME280;6953;48.810;9.204;2022-11-15T11:40:32;98134.44;;;19.17;59.04
13765;BME280;6953;48.810;9.204;2022-11-15T11:43:40;98132.78;;;19.43;58.69
13765;BME280;6953;48.810;9.204;2022-11-15T11:46:14;98152.63;;;19.48;58.17
13765;BME280;6953;48.810;9.204;2022-11-15T11:48:45;98119.81;;;19.57;58.23
13765;BME280;6953;48.810;9.204;2022-11-15T11:51:20;98110.72;;;19.50;58.00
13765;BME280;6953;48.810;9.204;2022-11-15T11:53:58;98096.16;;;19.54;58.17
13765;BME280;6953;48.810;9.204;2022-11-15T11:56:31;98103.63;;;19.86;57.71
13765;BME280;6953;48.810;9.204;2022-11-15T11:59:07;98114.66;;;19.90;56.81
13765;BME280;6953;48.810;9.204;2022-11-15T12:01:40;97865.63;;;18.22;56.89
13765;BME280;6953;48.810;9.204;2022-11-15T12:04:20;98122.31;;;19.59;57.52
13765;BME280;6953;48.810;9.204;2022-11-15T12:12:16;98081.28;;;20.39;55.06
13765;BME280;6953;48.810;9.204;2022-11-15T12:14:57;97867.50;;;19.94;52.42
13765;BME280;6953;48.810;9.204;2022-11-15T12:17:29;98066.47;;;20.95;52.80
13765;BME280;6953;48.810;9.204;2022-11-15T12:19:59;98022.47;;;20.40;53.59
13765;BME280;6953;48.810;9.204;2022-11-15T12:22:44;98013.78;;;20.05;54.65
13765;BME280;6953;48.810;9.204;2022-11-15T12:25:20;98077.69;;;20.05;55.50
13765;BME280;6953;48.810;9.204;2022-11-15T12:28:11;98083.69;;;19.72;56.69
13765;BME280;6953;48.810;9.204;2022-11-15T12:31:03;98085.28;;;19.48;57.55
13765;BME280;6953;48.810;9.204;2022-11-15T12:33:42;98025.25;;;18.91;58.71
13765;BME280;6953;48.810;9.204;2022-11-15T12:36:30;97836.00;;;17.63;59.83
13765;BME280;6953;48.810;9.204;2022-11-15T12:39:03;98096.94;;;18.83;61.07
13765;BME280;6953;48.810;9.204;2022-11-15T12:41:34;97849.00;;;17.47;61.36
13765;BME280;6953;48.810;9.204;2022-11-15T12:44:00;97975.91;;;18.16;61.99
13765;BME280;6953;48.810;9.204;2022-11-15T12:59:57;98046.97;;;18.51;63.52
13765;BME280;6953;48.810;9.204;2022-11-15T13:17:41;97538.22;;;15.23;66.43
13765;BME280;6953;48.810;9.204;2022-11-15T13:20:16;98052.78;;;18.08;67.07
13765;BME280;6953;48.810;9.204;2022-11-15T13:30:39;97955.81;;;17.30;68.74
13765;BME280;6953;48.810;9.204;2022-11-15T13:33:16;97988.28;;;17.23;69.46
13765;BME280;6953;48.810;9.204;2022-11-15T13:35:46;97941.28;;;17.15;69.56
13765;BME280;6953;48.810;9.204;2022-11-15T13:38:32;97493.81;;;14.49;69.29
13765;BME280;6953;48.810;9.204;2022-11-15T13:40:59;98005.22;;;17.50;70.28
13765;BME280;6953;48.810;9.204;2022-11-15T13:43:35;97996.00;;;17.45;70.52
13765;BME280;6953;48.810;9.204;2022-11-15T13:48:31;97992.06;;;17.30;70.84
13765;BME280;6953;48.810;9.204;2022-11-15T13:50:59;97984.41;;;17.27;71.09
13765;BME280;6953;48.810;9.204;2022-11-15T13:53:25;97981.59;;;17.28;70.99
13765;BME280;6953;48.810;9.204;2022-11-15T13:55:51;97902.75;;;16.83;71.17
13765;BME280;6953;48.810;9.204;2022-11-15T13:58:19;97980.88;;;17.26;71.37
13765;BME280;6953;48.810;9.204;2022-11-15T14:00:45;97976.16;;;17.20;71.98
13765;BME280;6953;48.810;9.204;2022-11-15T14:05:45;97970.69;;;16.93;73.07
13765;BME280;6953;48.810;9.204;2022-11-15T14:08:24;97711.69;;;15.03;75.53
13765;BME280;6953;48.810;9.204;2022-11-15T14:11:18;97910.78;;;15.84;78.15
13765;BME280;6953;48.810;9.204;2022-11-15T14:14:27;97960.53;;;15.69;80.63
13765;BME280;6953;48.810;9.204;2022-11-15T14:16:58;97964.25;;;15.37;82.95
13765;BME280;6953;48.810;9.204;2022-11-15T14:24:37;97929.59;;;14.88;86.96
13765;BME280;6953;48.810;9.204;2022-11-15T14:29:49;97896.16;;;14.36;88.89
13765;BME280;6953;48.810;9.204;2022-11-15T14:32:47;97937.47;;;14.57;90.53
13765;BME280;6953;48.810;9.204;2022-11-15T14:35:16;97920.00;;;14.45;91.25
13765;BME280;6953;48.810;9.204;2022-11-15T14:37:42;97889.09;;;14.25;92.15
13765;BME280;6953;48.810;9.204;2022-11-15T14:40:11;97916.13;;;14.49;92.67
13765;BME280;6953;48.810;9.204;2022-11-15T14:42:37;97923.69;;;14.43;92.57
13765;BME280;6953;48.810;9.204;2022-11-15T14:45:02;97882.69;;;14.39;92.97
13765;BME280;6953;48.810;9.204;2022-11-15T14:47:28;97907.63;;;14.57;93.59
13765;BME280;6953;48.810;9.204;2022-11-15T14:49:53;97692.41;;;13.26;93.35
13765;BME280;6953;48.810;9.204;2022-11-15T14:52:30;97717.91;;;13.36;93.82
13765;BME280;6953;48.810;9.204;2022-11-15T14:54:59;97863.44;;;14.16;93.70
13765;BME280;6953;48.810;9.204;2022-11-15T14:57:24;97939.06;;;14.38;94.19
13765;BME280;6953;48.810;9.204;2022-11-15T14:59:50;97906.91;;;14.44;94.21
13765;BME280;6953;48.810;9.204;2022-11-15T15:02:19;97890.34;;;14.53;93.73
13765;BME280;6953;48.810;9.204;2022-11-15T15:04:46;97835.66;;;14.44;92.55
13765;BME280;6953;48.810;9.204;2022-11-15T15:07:11;97636.81;;;13.50;90.42
13765;BME280;6953;48.810;9.204;2022-11-15T15:09:37;97669.63;;;13.89;89.03
13765;BME280;6953;48.810;9.204;2022-11-15T15:12:03;97882.66;;;15.33;87.94
13765;BME280;6953;48.810;9.204;2022-11-15T15:14:28;97865.84;;;15.34;86.85
13765;BME280;6953;48.810;9.204;2022-11-15T15:16:55;97867.84;;;15.41;86.25